Time;durP1;ratioP1;P1;durP2;ratioP2;P2;SDS_P1;SDS_P2;PMS_P1;PMS_P2;Temp;Humidity;BMP_temperature;BMP_pressure;BME280_temperature;BME280_humidity;BME280_pressure;Samples;Min_cycle;Max_cycle;Signal;HPM_P1;HPM_P2
2021/12/24 00:00:47;;;;;;;10.70;7.20;;;11.20;63.10;;;;;;4980968;28;20422;-57
2021/12/24 00:03:14;;;;;;;11.63;6.93;;;11.20;63.00;;;;;;5000071;28;20037;-53
2021/12/24 00:05:41;;;;;;;10.07;6.03;;;11.30;63.00;;;;;;5000012;28;20033;-54
2021/12/24 00:08:08;;;;;;;9.60;6.22;;;11.20;63.00;;;;;;4999369;28;20030;-55
2021/12/24 00:10:36;;;;;;;9.50;6.40;;;11.30;63.10;;;;;;5001510;28;20920;-55
2021/12/24 00:13:07;;;;;;;11.02;6.88;;;11.30;63.10;;;;;;5000736;28;20045;-55
2021/12/24 00:18:18;;;;;;;10.13;6.60;;;11.30;63.10;;;;;;4997404;28;20022;-55
2021/12/24 00:35:05;;;;;;;13.27;6.85;;;11.30;63.20;;;;;;4999054;28;20396;-54
2021/12/24 00:37:10;;;;;;;14.27;7.13;;;11.30;64.30;;;;;;5000277;28;20044;-57
2021/12/24 00:39:44;;;;;;;12.15;7.47;;;11.40;64.30;;;;;;4997150;28;20340;-55
2021/12/24 00:42:11;;;;;;;12.63;7.53;;;11.40;64.20;;;;;;5000865;28;20471;-57
2021/12/24 00:44:38;;;;;;;10.52;7.05;;;11.40;64.40;;;;;;4997841;28;20022;-57
2021/12/24 00:47:04;;;;;;;18.55;8.50;;;11.50;64.50;;;;;;4992752;28;20038;-55
2021/12/24 00:49:30;;;;;;;13.98;8.02;;;11.50;64.70;;;;;;4999597;28;20038;-57
2021/12/24 00:57:26;;;;;;;13.43;7.82;;;11.60;64.60;;;;;;4998635;28;20037;-58
2021/12/24 00:59:52;;;;;;;14.85;8.00;;;11.60;64.60;;;;;;4999014;28;20667;-57
2021/12/24 01:02:18;;;;;;;14.00;7.03;;;11.60;64.60;;;;;;4998573;28;20026;-55
2021/12/24 01:04:45;;;;;;;12.45;6.80;;;11.70;64.70;;;;;;5000994;28;20033;-58
2021/12/24 01:07:11;;;;;;;15.88;7.68;;;11.70;64.60;;;;;;4997685;28;20053;-55
2021/12/24 01:09:37;;;;;;;15.07;7.35;;;11.70;64.60;;;;;;4996715;28;20026;-56
2021/12/24 01:12:04;;;;;;;10.80;6.85;;;11.70;64.40;;;;;;4999377;28;20026;-55
2021/12/24 01:14:31;;;;;;;12.57;6.72;;;11.70;64.20;;;;;;5000912;28;20034;-58
2021/12/24 01:19:45;;;;;;;12.93;6.93;;;11.80;64.10;;;;;;4997435;28;20920;-55
2021/12/24 01:24:51;;;;;;;11.20;6.22;;;11.90;63.90;;;;;;4999938;28;20417;-58
2021/12/24 01:27:35;;;;;;;10.52;6.00;;;11.90;63.90;;;;;;4998293;28;20029;-55
2021/12/24 01:37:51;;;;;;;9.60;5.97;;;11.90;63.90;;;;;;5000363;28;20034;-58
2021/12/24 01:38:31;;;;;;;6.95;4.15;;;12.00;63.70;;;;;;4997413;28;20048;-55
2021/12/24 01:43:25;;;;;;;6.43;3.95;;;12.00;63.60;;;;;;4998385;28;20037;-55
2021/12/24 01:45:53;;;;;;;9.48;4.15;;;12.10;63.70;;;;;;4997249;28;20045;-54
2021/12/24 01:48:20;;;;;;;5.45;4.07;;;12.10;63.70;;;;;;4995253;28;20489;-55
2021/12/24 01:50:47;;;;;;;6.30;3.75;;;12.10;63.50;;;;;;4999982;28;20416;-57
2021/12/24 01:53:16;;;;;;;5.47;3.47;;;12.10;63.50;;;;;;4999662;28;20517;-56
2021/12/24 01:55:43;;;;;;;4.55;3.45;;;12.10;63.40;;;;;;4999834;28;20038;-55
2021/12/24 01:58:10;;;;;;;4.53;3.30;;;12.10;63.40;;;;;;4999543;28;20045;-61
2021/12/24 02:00:42;;;;;;;3.90;3.17;;;12.20;63.40;;;;;;4999532;28;20033;-55
2021/12/24 02:03:12;;;;;;;5.60;3.10;;;12.20;63.40;;;;;;5002741;28;20025;-54
2021/12/24 02:05:40;;;;;;;3.47;2.53;;;12.20;63.30;;;;;;5003556;28;20038;-53
2021/12/24 02:08:10;;;;;;;3.33;2.35;;;12.20;63.30;;;;;;5001254;28;20030;-58
2021/12/24 02:10:37;;;;;;;19.83;9.23;;;12.20;63.30;;;;;;5002931;28;20034;-57
2021/12/24 02:13:04;;;;;;;5.35;3.03;;;12.20;63.20;;;;;;5004107;28;20390;-56
2021/12/24 02:16:06;;;;;;;2.67;2.00;;;12.20;63.10;;;;;;5002245;28;20041;-53
2021/12/24 02:29:36;;;;;;;2.25;1.50;;;12.30;62.60;;;;;;5003883;28;20521;-59
2021/12/24 02:32:02;;;;;;;2.58;1.58;;;12.30;62.60;;;;;;5000698;28;20029;-56
2021/12/24 02:34:28;;;;;;;2.88;1.75;;;12.30;63.10;;;;;;5002389;28;20038;-57
2021/12/24 02:36:55;;;;;;;2.33;1.60;;;12.30;62.30;;;;;;5000450;28;20038;-54
2021/12/24 02:39:21;;;;;;;4.32;1.70;;;12.30;62.30;;;;;;4995176;28;20021;-57
2021/12/24 02:41:47;;;;;;;3.35;1.60;;;12.30;62.10;;;;;;4999952;28;20030;-54
2021/12/24 02:44:13;;;;;;;4.45;1.95;;;12.30;62.20;;;;;;5003226;28;20045;-56
2021/12/24 02:47:07;;;;;;;2.65;1.65;;;12.30;61.90;;;;;;5001331;28;20609;-57
2021/12/24 02:55:10;;;;;;;2.95;1.88;;;12.30;61.40;;;;;;4999614;28;20121;-58
2021/12/24 02:57:38;;;;;;;7.65;2.75;;;12.40;61.30;;;;;;5000665;28;20060;-58
2021/12/24 03:00:15;;;;;;;6.03;2.45;;;12.40;61.30;;;;;;5000506;28;20406;-56
2021/12/24 03:02:46;;;;;;;7.88;2.50;;;12.40;61.20;;;;;;5001583;28;20030;-58
2021/12/24 03:05:14;;;;;;;7.20;2.97;;;12.40;61.00;;;;;;5003102;28;20052;-60
2021/12/24 03:07:42;;;;;;;6.18;2.30;;;12.40;60.90;;;;;;4998775;28;20027;-57
2021/12/24 03:10:15;;;;;;;5.38;2.53;;;12.40;60.80;;;;;;5000000;28;20090;-58
2021/12/24 03:12:44;;;;;;;6.75;2.38;;;12.40;60.80;;;;;;5002101;28;20077;-57
2021/12/24 03:15:13;;;;;;;4.70;2.47;;;12.40;60.50;;;;;;5001136;28;20390;-56
2021/12/24 03:17:45;;;;;;;4.57;2.13;;;12.40;60.50;;;;;;4996828;28;20397;-55
2021/12/24 03:20:12;;;;;;;6.50;2.10;;;12.40;60.50;;;;;;5000313;28;20041;-59
2021/12/24 03:23:42;;;;;;;6.53;2.45;;;12.40;60.30;;;;;;5000830;28;20026;-56
2021/12/24 03:25:34;;;;;;;4.80;2.22;;;12.40;60.10;;;;;;5002025;28;20038;-54
2021/12/24 03:28:00;;;;;;;5.95;1.77;;;12.40;60.10;;;;;;4999199;28;21043;-58
2021/12/24 03:30:27;;;;;;;5.90;2.05;;;12.40;60.00;;;;;;5001335;28;20765;-56
2021/12/24 03:32:54;;;;;;;5.70;1.83;;;12.40;59.90;;;;;;5000773;28;20033;-55
2021/12/24 03:35:20;;;;;;;8.25;2.45;;;12.40;59.90;;;;;;5001889;28;20494;-61
2021/12/24 03:37:46;;;;;;;5.38;2.33;;;12.40;59.70;;;;;;4997614;28;20026;-55
2021/12/24 03:40:13;;;;;;;4.80;1.80;;;12.40;59.60;;;;;;4998843;28;20048;-57
2021/12/24 03:42:41;;;;;;;11.40;4.47;;;12.40;59.60;;;;;;5001704;28;20022;-59
2021/12/24 03:45:22;;;;;;;6.18;2.50;;;12.50;59.60;;;;;;4999972;28;20962;-58
2021/12/24 03:47:55;;;;;;;8.20;2.90;;;12.50;59.60;;;;;;4997918;28;20037;-56
2021/12/24 03:50:25;;;;;;;7.15;2.15;;;12.50;59.60;;;;;;5001941;28;20049;-56
2021/12/24 03:55:17;;;;;;;5.20;2.50;;;12.50;59.70;;;;;;4999925;28;20034;-56
2021/12/24 03:57:44;;;;;;;8.15;2.47;;;12.50;59.60;;;;;;5001166;28;20025;-54
2021/12/24 04:00:10;;;;;;;5.65;1.92;;;12.50;59.70;;;;;;4997199;28;20042;-58
2021/12/24 04:02:37;;;;;;;5.35;2.22;;;12.50;59.70;;;;;;5000484;28;20033;-59
2021/12/24 04:05:03;;;;;;;3.85;1.88;;;12.50;59.80;;;;;;5001544;28;20038;-58
2021/12/24 04:07:30;;;;;;;7.18;2.97;;;12.50;59.80;;;;;;4997861;28;20517;-57
2021/12/24 04:12:22;;;;;;;5.55;2.15;;;12.50;59.90;;;;;;4998940;28;20026;-58
2021/12/24 04:14:48;;;;;;;6.00;2.28;;;12.50;59.90;;;;;;4999404;28;20505;-58
2021/12/24 04:17:14;;;;;;;6.18;2.40;;;12.50;60.00;;;;;;4997442;28;20383;-57
2021/12/24 04:25:10;;;;;;;11.68;2.58;;;12.50;60.10;;;;;;4998992;28;20612;-57
2021/12/24 04:27:37;;;;;;;8.77;2.40;;;12.50;60.10;;;;;;4998612;28;20022;-59
2021/12/24 06:55:49;;;;;;;9.18;3.70;;;12.50;58.20;;;;;;5179692;23;20636;-56
2021/12/24 06:58:15;;;;;;;11.02;3.83;;;12.50;58.20;;;;;;4955526;28;20038;-57
2021/12/24 07:00:42;;;;;;;12.32;3.33;;;12.50;58.20;;;;;;4968205;28;20051;-59
2021/12/24 07:03:08;;;;;;;9.57;4.00;;;12.50;58.20;;;;;;4974819;28;20498;-58
2021/12/24 07:05:34;;;;;;;7.43;3.38;;;12.50;58.10;;;;;;4973587;28;20383;-56
2021/12/24 07:08:01;;;;;;;11.98;3.78;;;12.50;58.20;;;;;;4972757;28;20023;-60
2021/12/24 07:10:27;;;;;;;6.85;3.03;;;12.50;58.20;;;;;;4969691;28;20042;-57
2021/12/24 07:12:53;;;;;;;11.23;3.45;;;12.50;58.10;;;;;;4974848;28;20026;-55
2021/12/24 07:15:20;;;;;;;10.85;3.30;;;12.50;58.20;;;;;;4976527;28;20050;-58
2021/12/24 07:17:46;;;;;;;7.15;3.15;;;12.50;58.20;;;;;;4967471;28;20483;-56
2021/12/24 07:20:13;;;;;;;13.85;4.78;;;12.50;58.20;;;;;;4969743;28;20025;-56
2021/12/24 07:22:39;;;;;;;13.30;3.65;;;12.50;58.20;;;;;;4974791;28;20030;-56
2021/12/24 07:25:06;;;;;;;9.32;3.80;;;12.50;58.20;;;;;;4963875;28;20026;-58
2021/12/24 07:27:34;;;;;;;8.65;3.45;;;12.50;58.10;;;;;;4976163;28;20022;-57
2021/12/24 07:30:01;;;;;;;8.65;3.65;;;12.50;58.10;;;;;;4969191;28;20322;-56
2021/12/24 07:32:27;;;;;;;11.15;3.55;;;12.50;58.10;;;;;;4965631;28;20411;-57
2021/12/24 07:34:53;;;;;;;12.43;3.55;;;12.50;58.10;;;;;;4964180;28;20027;-57
2021/12/24 07:37:19;;;;;;;15.45;3.40;;;12.50;58.20;;;;;;4970005;28;20027;-57
2021/12/24 07:39:46;;;;;;;7.03;3.33;;;12.50;58.20;;;;;;4967926;28;20019;-58
2021/12/24 07:42:12;;;;;;;10.15;3.47;;;12.50;58.10;;;;;;4970607;28;20029;-57
2021/12/24 07:44:38;;;;;;;8.07;3.40;;;12.50;58.10;;;;;;4978942;28;20065;-58
2021/12/24 07:47:14;;;;;;;10.10;3.15;;;12.50;58.10;;;;;;4970104;28;20548;-57
2021/12/24 07:49:42;;;;;;;8.88;2.92;;;12.50;58.10;;;;;;4973066;28;20028;-58
2021/12/24 07:52:08;;;;;;;9.93;3.17;;;12.50;58.10;;;;;;4973906;28;20046;-56
2021/12/24 07:54:39;;;;;;;11.40;3.35;;;12.50;58.10;;;;;;4985029;28;20564;-58
2021/12/24 07:57:06;;;;;;;7.30;2.60;;;12.50;58.00;;;;;;4995875;28;20044;-57
2021/12/24 07:59:37;;;;;;;14.30;3.50;;;12.50;58.00;;;;;;4997274;28;20557;-56
2021/12/24 08:02:06;;;;;;;10.63;2.60;;;12.50;58.00;;;;;;4997460;28;20037;-54
2021/12/24 08:04:32;;;;;;;10.40;3.55;;;12.50;57.90;;;;;;5001759;28;20094;-58
2021/12/24 08:07:01;;;;;;;17.77;3.60;;;12.60;57.90;;;;;;5000043;28;20038;-58
2021/12/24 08:09:28;;;;;;;10.63;3.10;;;12.50;57.70;;;;;;4998712;28;20037;-57
2021/12/24 08:11:54;;;;;;;7.03;2.75;;;12.50;57.80;;;;;;4981223;28;20478;-58
2021/12/24 08:14:20;;;;;;;13.10;2.97;;;12.50;57.80;;;;;;4995141;28;20498;-56
2021/12/24 08:16:46;;;;;;;9.63;2.70;;;12.60;57.90;;;;;;4997157;28;20057;-58
2021/12/24 08:19:16;;;;;;;8.50;2.90;;;12.60;57.80;;;;;;5000432;28;20088;-56
2021/12/24 08:21:43;;;;;;;12.75;2.67;;;12.60;57.80;;;;;;4999207;28;20026;-57
2021/12/24 08:24:10;;;;;;;7.78;2.60;;;12.60;57.70;;;;;;4977805;28;20065;-56
2021/12/24 08:26:36;;;;;;;10.68;2.92;;;12.60;57.70;;;;;;4997637;28;20359;-57
2021/12/24 08:29:03;;;;;;;8.88;2.80;;;12.60;57.70;;;;;;4998408;28;20451;-59
2021/12/24 08:31:31;;;;;;;7.85;3.03;;;12.60;57.60;;;;;;4997067;28;20034;-59
2021/12/24 08:33:58;;;;;;;7.03;2.40;;;12.60;57.60;;;;;;4999143;28;20478;-58
2021/12/24 08:36:24;;;;;;;13.70;3.45;;;12.60;57.60;;;;;;4998221;28;20045;-59
2021/12/24 08:38:50;;;;;;;9.52;2.80;;;12.60;57.60;;;;;;4997025;28;20045;-58
2021/12/24 08:41:16;;;;;;;14.70;3.25;;;12.60;57.50;;;;;;4999499;28;20037;-56
2021/12/24 08:43:42;;;;;;;7.05;2.72;;;12.60;57.50;;;;;;4998392;28;20463;-59
2021/12/24 08:46:09;;;;;;;11.52;3.17;;;12.60;57.50;;;;;;4995695;28;20038;-58
2021/12/24 08:48:35;;;;;;;8.93;2.90;;;12.60;57.50;;;;;;4997415;28;20054;-58
2021/12/24 08:51:01;;;;;;;8.30;2.85;;;12.60;57.40;;;;;;4998648;28;20026;-58
2021/12/24 08:53:27;;;;;;;9.38;3.28;;;12.60;57.40;;;;;;4998646;28;20398;-57
2021/12/24 08:55:54;;;;;;;9.98;3.22;;;12.60;57.50;;;;;;4998983;28;20659;-57
2021/12/24 08:58:20;;;;;;;6.88;2.80;;;12.60;57.50;;;;;;4999752;28;20390;-57
2021/12/24 09:00:47;;;;;;;9.85;3.15;;;12.60;57.50;;;;;;4997302;28;20026;-56
2021/12/24 09:03:13;;;;;;;9.98;3.22;;;12.60;57.50;;;;;;4998855;28;20041;-57
2021/12/24 09:05:39;;;;;;;11.35;2.90;;;12.60;57.60;;;;;;5000015;28;20030;-58
2021/12/24 09:08:05;;;;;;;8.18;2.72;;;12.70;57.50;;;;;;4998008;28;20038;-57
2021/12/24 09:10:32;;;;;;;10.15;2.75;;;12.60;57.40;;;;;;5003520;28;20033;-58
2021/12/24 09:12:58;;;;;;;8.40;2.90;;;12.70;57.40;;;;;;4996453;28;20320;-56
2021/12/24 09:15:30;;;;;;;7.35;2.60;;;12.70;57.80;;;;;;4999752;28;20038;-58
2021/12/24 09:18:01;;;;;;;11.32;2.63;;;12.70;57.20;;;;;;4996754;28;20394;-57
2021/12/24 09:20:34;;;;;;;10.80;2.53;;;12.70;57.10;;;;;;5001160;28;20398;-56
2021/12/24 09:23:02;;;;;;;8.07;2.45;;;12.70;57.10;;;;;;4997080;28;20876;-56
2021/12/24 09:25:29;;;;;;;17.85;5.25;;;12.70;57.10;;;;;;5001617;28;20046;-56
2021/12/24 09:27:56;;;;;;;10.27;3.03;;;12.70;57.00;;;;;;4995146;28;20034;-57
2021/12/24 09:30:24;;;;;;;9.40;2.60;;;12.80;57.10;;;;;;5003065;28;20030;-58
2021/12/24 09:32:51;;;;;;;11.05;3.85;;;12.70;57.10;;;;;;4980925;28;20042;-58
2021/12/24 09:35:18;;;;;;;6.30;2.22;;;12.70;57.50;;;;;;4994454;28;20122;-56
2021/12/24 09:37:45;;;;;;;9.45;2.45;;;12.80;57.10;;;;;;5000379;28;20102;-56
2021/12/24 09:40:12;;;;;;;5.80;2.05;;;12.80;57.00;;;;;;5001735;28;20045;-57
2021/12/24 09:42:39;;;;;;;10.93;3.00;;;12.80;57.10;;;;;;5003044;28;20037;-58
2021/12/24 09:45:07;;;;;;;16.63;2.47;;;12.80;56.90;;;;;;5002618;28;20493;-58
2021/12/24 09:47:34;;;;;;;12.60;2.90;;;12.80;56.80;;;;;;4981595;28;20038;-54
2021/12/24 09:50:00;;;;;;;10.38;2.50;;;12.80;56.80;;;;;;5002552;28;20611;-58
2021/12/24 09:52:27;;;;;;;7.85;2.25;;;12.80;56.70;;;;;;4997097;28;20033;-58
2021/12/24 09:54:53;;;;;;;7.70;2.10;;;12.80;56.60;;;;;;5002740;28;20057;-59
2021/12/24 09:57:19;;;;;;;7.28;2.22;;;12.80;56.60;;;;;;4999972;28;20431;-56
2021/12/24 09:59:46;;;;;;;8.07;2.58;;;12.90;56.70;;;;;;5001125;28;20113;-59
2021/12/24 10:02:16;;;;;;;8.88;2.38;;;12.90;56.70;;;;;;5000593;28;20032;-56
2021/12/24 10:04:44;;;;;;;12.60;2.22;;;12.90;56.50;;;;;;5000910;28;20056;-57
2021/12/24 10:07:16;;;;;;;9.63;2.35;;;13.00;56.60;;;;;;4999691;28;20045;-58
2021/12/24 10:09:45;;;;;;;8.90;2.80;;;12.90;56.40;;;;;;4980299;28;20030;-57
2021/12/24 10:12:17;;;;;;;9.52;2.20;;;12.90;56.30;;;;;;4999468;28;20026;-58
2021/12/24 10:14:48;;;;;;;11.73;2.28;;;12.90;56.30;;;;;;4983800;28;20039;-57
2021/12/24 10:17:20;;;;;;;11.70;3.65;;;13.00;56.40;;;;;;4992969;28;20410;-56
2021/12/24 10:19:49;;;;;;;13.65;3.10;;;13.00;56.40;;;;;;4973207;28;20041;-56
2021/12/24 10:22:17;;;;;;;10.57;2.10;;;13.00;56.40;;;;;;4997383;28;20022;-56
2021/12/24 10:24:56;;;;;;;10.98;2.30;;;13.00;56.40;;;;;;4999802;28;20037;-55
2021/12/24 10:27:31;;;;;;;11.95;2.47;;;13.00;56.40;;;;;;5000928;28;20492;-56
2021/12/24 10:29:57;;;;;;;10.20;2.33;;;13.10;56.20;;;;;;5001777;28;20026;-55
2021/12/24 10:32:23;;;;;;;12.88;2.72;;;13.10;56.30;;;;;;4998155;28;20045;-54
2021/12/24 10:34:50;;;;;;;12.88;2.53;;;13.00;56.20;;;;;;4996496;28;20971;-55
2021/12/24 10:37:18;;;;;;;9.43;2.42;;;13.00;56.10;;;;;;4994847;28;20061;-56
2021/12/24 10:39:57;;;;;;;10.40;2.60;;;13.10;56.20;;;;;;5002667;28;20042;-56
2021/12/24 10:42:35;;;;;;;11.98;3.10;;;13.10;56.20;;;;;;4991281;28;20022;-58
2021/12/24 10:45:05;;;;;;;9.43;2.60;;;13.10;56.30;;;;;;4996314;28;20042;-58
2021/12/24 10:47:35;;;;;;;10.25;2.35;;;13.10;56.30;;;;;;4996485;28;20059;-58
2021/12/24 10:55:18;;;;;;;13.85;2.88;;;13.20;56.40;;;;;;5000895;28;20414;-57
2021/12/24 10:57:48;;;;;;;17.85;2.67;;;13.20;56.30;;;;;;4995189;28;20041;-57
2021/12/24 11:00:25;;;;;;;16.33;4.00;;;13.20;56.30;;;;;;4998327;28;20030;-58
2021/12/24 11:03:03;;;;;;;10.00;3.13;;;13.30;56.40;;;;;;5000226;28;20030;-55
2021/12/24 11:05:41;;;;;;;10.57;3.13;;;13.30;56.30;;;;;;4975913;28;20717;-57
2021/12/24 11:08:14;;;;;;;9.68;2.55;;;13.40;56.30;;;;;;4998835;28;20486;-54
2021/12/24 11:10:54;;;;;;;9.45;2.47;;;13.40;56.10;;;;;;4998911;28;20394;-58
2021/12/24 11:13:33;;;;;;;15.35;2.63;;;13.40;56.00;;;;;;4997613;28;20022;-57
2021/12/24 11:16:06;;;;;;;17.90;2.83;;;13.50;56.00;;;;;;4977416;28;20042;-56
2021/12/24 11:18:34;;;;;;;13.02;2.67;;;13.50;55.90;;;;;;4993781;28;20827;-56
2021/12/24 11:21:05;;;;;;;11.73;2.55;;;13.50;55.80;;;;;;5000540;28;20521;-56
2021/12/24 11:23:33;;;;;;;14.30;2.45;;;13.60;55.70;;;;;;5000262;28;20394;-56
2021/12/24 11:26:03;;;;;;;12.73;3.45;;;13.60;55.60;;;;;;5000529;28;20387;-54
2021/12/24 11:28:32;;;;;;;13.07;2.75;;;13.60;55.40;;;;;;4992624;28;20046;-56
2021/12/24 11:31:03;;;;;;;10.57;2.38;;;13.60;55.30;;;;;;4995467;28;20037;-56
2021/12/24 11:33:32;;;;;;;11.52;2.47;;;13.60;55.20;;;;;;4978795;28;20042;-57
2021/12/24 11:36:00;;;;;;;9.55;2.53;;;13.60;55.30;;;;;;4999921;28;20421;-56
2021/12/24 11:38:35;;;;;;;9.18;2.60;;;13.60;55.20;;;;;;4995367;28;20036;-56
2021/12/24 11:41:03;;;;;;;11.73;2.45;;;13.60;55.20;;;;;;4999859;28;20501;-58
2021/12/24 11:43:38;;;;;;;13.40;3.10;;;13.60;55.20;;;;;;4999949;28;20048;-56
2021/12/24 11:46:07;;;;;;;10.90;2.22;;;13.60;55.10;;;;;;4998918;28;20040;-58
2021/12/24 11:48:34;;;;;;;12.10;2.58;;;13.60;55.10;;;;;;4997210;28;20460;-58
2021/12/24 11:51:06;;;;;;;14.05;3.10;;;13.60;55.30;;;;;;5000800;28;20030;-56
2021/12/24 11:53:33;;;;;;;8.93;2.65;;;13.60;55.20;;;;;;4994327;28;20045;-58
2021/12/24 11:56:15;;;;;;;13.32;2.45;;;13.70;55.30;;;;;;4998184;28;20046;-58
2021/12/24 11:58:46;;;;;;;8.55;2.72;;;13.70;55.30;;;;;;4976008;28;20026;-58
2021/12/24 12:01:16;;;;;;;14.60;3.00;;;13.70;55.40;;;;;;4997678;28;20041;-56
2021/12/24 12:03:49;;;;;;;13.48;2.53;;;13.70;55.30;;;;;;4999503;28;20026;-57
2021/12/24 12:06:24;;;;;;;10.52;2.70;;;13.80;55.20;;;;;;4988125;28;20041;-58
2021/12/24 12:08:55;;;;;;;12.35;2.80;;;13.80;55.00;;;;;;4987536;28;20081;-56
2021/12/24 12:11:24;;;;;;;9.38;2.63;;;13.80;54.60;;;;;;4977171;28;20041;-57
2021/12/24 12:14:04;;;;;;;16.40;3.08;;;13.80;54.70;;;;;;4990235;28;20026;-57
2021/12/24 12:16:42;;;;;;;12.43;2.83;;;13.80;54.80;;;;;;4995077;28;20040;-54
2021/12/24 12:24:59;;;;;;;11.93;2.90;;;13.80;54.80;;;;;;5002168;28;20033;-57
2021/12/24 12:27:29;;;;;;;11.10;2.88;;;13.80;54.80;;;;;;4998630;28;20041;-57
2021/12/24 12:29:55;;;;;;;12.85;2.33;;;13.80;55.20;;;;;;4999836;28;20025;-58
2021/12/24 12:32:21;;;;;;;17.38;2.60;;;13.80;54.80;;;;;;4996556;28;20049;-56
2021/12/24 12:34:51;;;;;;;16.20;2.70;;;13.80;54.80;;;;;;5000542;28;20409;-55
2021/12/24 12:37:27;;;;;;;14.70;2.58;;;13.80;54.80;;;;;;4999394;28;20611;-54
2021/12/24 12:40:12;;;;;;;9.70;2.42;;;13.80;54.80;;;;;;4996027;28;20018;-58
2021/12/24 12:42:56;;;;;;;13.52;2.47;;;13.70;54.80;;;;;;4998246;28;20026;-58
2021/12/24 12:45:46;;;;;;;12.35;2.58;;;13.70;54.70;;;;;;4999177;28;20581;-56
2021/12/24 12:48:23;;;;;;;11.35;2.45;;;13.70;54.80;;;;;;4997481;28;20043;-55
2021/12/24 12:50:58;;;;;;;12.27;2.65;;;13.70;55.00;;;;;;4996383;28;20045;-56
2021/12/24 12:53:36;;;;;;;14.43;2.97;;;13.70;55.10;;;;;;4997732;28;20038;-58
2021/12/24 12:56:08;;;;;;;15.75;2.78;;;13.70;55.10;;;;;;5000143;28;20054;-57
2021/12/24 12:58:35;;;;;;;12.48;2.63;;;13.70;55.00;;;;;;4996734;28;20037;-56
2021/12/24 13:01:10;;;;;;;11.13;2.60;;;13.70;55.00;;;;;;4999619;28;20036;-57
2021/12/24 13:03:55;;;;;;;11.25;2.08;;;13.70;55.00;;;;;;4999375;28;20513;-58
2021/12/24 13:06:41;;;;;;;14.85;2.40;;;13.70;55.00;;;;;;4999676;28;20030;-57
2021/12/24 13:09:09;;;;;;;8.65;2.47;;;13.70;54.70;;;;;;4999215;28;20494;-58
2021/12/24 13:11:37;;;;;;;9.68;2.45;;;13.70;54.80;;;;;;4998341;28;20475;-57
2021/12/24 13:14:05;;;;;;;17.80;2.70;;;13.70;54.80;;;;;;4996535;28;20034;-55
2021/12/24 13:16:38;;;;;;;15.30;2.55;;;13.70;54.60;;;;;;4977976;28;20494;-56
2021/12/24 13:19:24;;;;;;;17.15;2.60;;;13.60;54.40;;;;;;4998584;28;20033;-57
2021/12/24 13:22:31;;;;;;;15.00;2.47;;;13.60;54.50;;;;;;5000392;28;20349;-55
2021/12/24 13:25:13;;;;;;;13.45;2.75;;;13.60;54.60;;;;;;4998348;28;20378;-56
2021/12/24 13:27:52;;;;;;;10.75;2.95;;;13.60;54.70;;;;;;4977234;28;20437;-54
2021/12/24 13:30:26;;;;;;;20.92;2.80;;;13.60;54.80;;;;;;4999952;28;20851;-56
2021/12/24 13:32:56;;;;;;;12.95;2.70;;;13.50;54.90;;;;;;4997115;28;20029;-57
2021/12/24 13:35:31;;;;;;;10.68;2.60;;;13.50;54.90;;;;;;4992304;28;20037;-56
2021/12/24 13:37:58;;;;;;;14.00;2.80;;;13.50;55.00;;;;;;4996877;28;20025;-56
2021/12/24 13:40:28;;;;;;;12.27;2.60;;;13.40;55.20;;;;;;4999070;28;20026;-54
2021/12/24 13:42:57;;;;;;;11.32;2.85;;;13.40;55.30;;;;;;4999707;28;20088;-55
2021/12/24 13:45:27;;;;;;;16.95;2.80;;;13.40;55.40;;;;;;4999865;28;20079;-55
2021/12/24 13:48:09;;;;;;;15.27;3.38;;;13.30;55.40;;;;;;4996790;28;20049;-57
2021/12/24 13:56:16;;;;;;;11.45;2.50;;;13.30;55.60;;;;;;5003817;28;20071;-55
2021/12/24 13:58:54;;;;;;;14.55;3.35;;;13.30;55.60;;;;;;5001493;28;20390;-56
2021/12/24 14:01:26;;;;;;;13.10;3.20;;;13.30;55.70;;;;;;4998822;28;20787;-55
2021/12/24 14:03:52;;;;;;;9.60;2.55;;;13.20;55.80;;;;;;4998805;28;20041;-55
2021/12/24 14:06:19;;;;;;;10.88;3.20;;;13.20;55.80;;;;;;5002924;28;20525;-57
2021/12/24 14:08:45;;;;;;;14.63;3.40;;;13.20;55.90;;;;;;4997184;28;20589;-55
2021/12/24 14:11:18;;;;;;;16.55;3.05;;;13.20;55.90;;;;;;4998007;28;20029;-54
2021/12/24 14:13:52;;;;;;;15.02;3.88;;;13.20;55.90;;;;;;5001748;28;20034;-54
2021/12/24 14:18:50;;;;;;;11.25;2.80;;;13.20;56.00;;;;;;4979936;28;20026;-56
2021/12/24 14:24:11;;;;;;;13.25;3.60;;;13.20;56.10;;;;;;5003188;28;21015;-55
2021/12/24 14:26:43;;;;;;;8.65;2.60;;;13.20;56.10;;;;;;5002460;28;20037;-57
2021/12/24 14:29:09;;;;;;;22.42;3.70;;;13.20;56.10;;;;;;5000269;28;20053;-57
2021/12/24 14:31:58;;;;;;;12.32;2.97;;;13.20;56.20;;;;;;5000725;28;20490;-56
2021/12/24 14:34:47;;;;;;;11.65;3.13;;;13.20;56.30;;;;;;5000433;28;20078;-55
2021/12/24 14:37:19;;;;;;;11.43;3.30;;;13.10;56.30;;;;;;5001957;28;21003;-58
2021/12/24 14:39:53;;;;;;;17.13;3.35;;;13.10;56.40;;;;;;5002334;28;20022;-58
2021/12/24 14:42:24;;;;;;;;;;;13.10;56.50;;;;;;5002582;28;20420;-56
2021/12/24 14:44:56;;;;;;;15.70;3.15;;;13.10;56.50;;;;;;4982761;28;19910;-54
2021/12/24 14:47:29;;;;;;;12.18;3.28;;;13.10;56.50;;;;;;4998118;28;20049;-54
2021/12/24 14:50:02;;;;;;;10.95;2.92;;;13.10;56.60;;;;;;5001222;28;20048;-55
2021/12/24 14:52:28;;;;;;;13.00;2.78;;;13.10;56.70;;;;;;5000393;28;20045;-57
2021/12/24 14:55:17;;;;;;;16.77;4.18;;;13.10;56.70;;;;;;5000018;28;20057;-56
2021/12/24 14:57:47;;;;;;;15.73;3.28;;;13.00;56.80;;;;;;5002069;28;20040;-58
2021/12/24 15:00:16;;;;;;;18.80;3.55;;;13.00;56.90;;;;;;5001367;28;20394;-57
2021/12/24 15:02:46;;;;;;;15.48;3.90;;;13.00;56.90;;;;;;5000129;28;20032;-56
2021/12/24 15:05:24;;;;;;;13.35;2.95;;;12.90;57.00;;;;;;5000236;28;20580;-56
2021/12/24 15:07:51;;;;;;;16.50;4.03;;;12.90;57.10;;;;;;5000898;28;20029;-54
2021/12/24 15:10:18;;;;;;;14.98;3.40;;;12.90;57.10;;;;;;4999380;28;20026;-55
2021/12/24 15:12:49;;;;;;;16.60;3.20;;;12.90;57.10;;;;;;4999869;28;20018;-55
2021/12/24 15:15:17;;;;;;;16.52;3.95;;;12.90;57.10;;;;;;4984308;28;20385;-55
2021/12/24 15:17:46;;;;;;;17.63;3.35;;;12.90;57.20;;;;;;4998605;28;20474;-55
2021/12/24 15:20:13;;;;;;;13.43;3.60;;;12.90;57.10;;;;;;5001595;28;20470;-57
2021/12/24 15:22:39;;;;;;;16.25;4.10;;;12.90;57.20;;;;;;4993977;28;20018;-57
2021/12/24 15:25:07;;;;;;;18.45;3.78;;;12.90;57.10;;;;;;5002107;28;20029;-55
2021/12/24 15:27:36;;;;;;;16.88;4.55;;;12.90;57.20;;;;;;4995829;28;20057;-55
2021/12/24 15:30:11;;;;;;;16.35;3.85;;;12.90;57.20;;;;;;5000861;28;20501;-58
2021/12/24 15:32:38;;;;;;;16.67;3.90;;;12.90;57.20;;;;;;4996385;28;20363;-56
2021/12/24 15:35:06;;;;;;;11.63;3.83;;;12.90;57.30;;;;;;5000173;28;20099;-55
2021/12/24 15:37:33;;;;;;;14.27;4.25;;;12.90;57.30;;;;;;4998159;28;20033;-57
2021/12/24 15:40:00;;;;;;;18.50;4.57;;;12.90;57.30;;;;;;4998675;28;20598;-54
2021/12/24 15:42:28;;;;;;;12.38;3.85;;;12.90;57.40;;;;;;4999149;28;20034;-55
2021/12/24 15:44:55;;;;;;;13.38;4.10;;;12.90;57.40;;;;;;5001116;28;20025;-58
2021/12/24 15:47:21;;;;;;;16.33;3.88;;;12.80;57.30;;;;;;4993708;28;20387;-55
2021/12/24 15:49:47;;;;;;;11.90;3.60;;;12.80;57.40;;;;;;4991503;28;20036;-55
2021/12/24 15:52:14;;;;;;;11.52;4.18;;;12.80;57.40;;;;;;4999866;28;20057;-55
2021/12/24 15:54:40;;;;;;;20.33;4.07;;;12.90;57.50;;;;;;4996266;28;20046;-55
2021/12/24 15:57:06;;;;;;;11.02;3.58;;;12.80;57.90;;;;;;5000582;28;20551;-55
2021/12/24 15:59:33;;;;;;;13.75;4.28;;;12.80;57.40;;;;;;4998967;28;20034;-55
2021/12/24 16:02:01;;;;;;;20.00;4.70;;;12.80;57.40;;;;;;4997322;28;20044;-55
2021/12/24 16:04:28;;;;;;;19.80;4.20;;;12.80;57.50;;;;;;4997266;28;20033;-56
2021/12/24 16:06:54;;;;;;;15.77;4.90;;;12.80;57.50;;;;;;4997097;28;20034;-55
2021/12/24 16:09:21;;;;;;;20.85;5.15;;;12.80;57.60;;;;;;4997642;28;20042;-55
2021/12/24 16:11:49;;;;;;;19.73;4.72;;;12.70;57.60;;;;;;4989181;28;20034;-58
2021/12/24 16:14:16;;;;;;;20.40;4.82;;;12.70;57.70;;;;;;4991135;28;20050;-53
2021/12/24 16:16:44;;;;;;;14.10;4.50;;;12.70;57.70;;;;;;4981551;28;20034;-57
2021/12/24 16:19:15;;;;;;;16.00;4.18;;;12.70;57.80;;;;;;4986626;28;20026;-56
2021/12/24 16:21:42;;;;;;;16.30;3.70;;;12.70;57.90;;;;;;4986590;28;20034;-56
2021/12/24 16:24:09;;;;;;;22.63;4.88;;;12.70;57.80;;;;;;4987459;28;20036;-57
2021/12/24 16:26:36;;;;;;;19.20;3.92;;;12.70;57.90;;;;;;4986388;28;20037;-58
2021/12/24 16:29:04;;;;;;;19.05;4.70;;;12.70;57.90;;;;;;4987197;28;20034;-57
2021/12/24 16:31:31;;;;;;;14.38;3.67;;;12.60;57.80;;;;;;4987401;28;20018;-58
2021/12/24 16:33:57;;;;;;;18.63;4.63;;;12.70;57.90;;;;;;4986752;28;20025;-54
2021/12/24 16:36:23;;;;;;;14.38;3.92;;;12.70;58.00;;;;;;4985991;28;20522;-55
2021/12/24 16:38:50;;;;;;;28.50;4.80;;;12.60;58.00;;;;;;4987063;28;20021;-54
2021/12/24 16:41:16;;;;;;;19.20;4.80;;;12.60;58.00;;;;;;4986805;28;20030;-55
2021/12/24 16:43:42;;;;;;;14.57;3.75;;;12.60;58.00;;;;;;4969549;28;20386;-57